Terminal Aerodrome Forecast
Issued by NWS

Home | Current Version | Previous Version | Text Only | Print | Product List | Glossary On
Versions: 1 2 3 4 5 6 7 8 9 10 11 12 13 14
000
FTUS43 KIND 061725
TAFBMG
TAF
KBMG 061725Z 0618/0718 31005KT 4SM BR OVC004
     FM062000 30010KT P6SM BKN020
     FM062100 30010KT P6SM BKN010
     FM062200 30011KT P6SM BKN008
     FM070100 30010KT P6SM BKN015
     FM070200 30009KT P6SM BKN060
     FM070600 30005KT P6SM BKN250=

USA.gov is the U.S. government's official web portal to all federal, state and local government web resources and services.